sensor_id;sensor_type;location;lat;lon;timestamp;P1;durP1;ratioP1;P2;durP2;ratioP2
33824;SDS011;20127;48.962;8.342;2023-06-10T00:02:09;10.30;;;9.38;;
33824;SDS011;20127;48.962;8.342;2023-06-10T00:05:11;11.65;;;9.13;;
33824;SDS011;20127;48.962;8.342;2023-06-10T00:08:13;10.00;;;9.00;;
33824;SDS011;20127;48.962;8.342;2023-06-10T00:11:17;10.00;;;9.10;;
33824;SDS011;20127;48.962;8.342;2023-06-10T00:14:18;9.98;;;9.18;;
33824;SDS011;20127;48.962;8.342;2023-06-10T00:17:20;10.82;;;9.65;;
33824;SDS011;20127;48.962;8.342;2023-06-10T00:20:22;10.50;;;9.60;;
33824;SDS011;20127;48.962;8.342;2023-06-10T00:23:25;10.25;;;9.45;;
33824;SDS011;20127;48.962;8.342;2023-06-10T00:26:30;10.32;;;9.38;;
33824;SDS011;20127;48.962;8.342;2023-06-10T00:29:32;10.68;;;9.38;;
33824;SDS011;20127;48.962;8.342;2023-06-10T00:32:34;9.73;;;8.88;;
33824;SDS011;20127;48.962;8.342;2023-06-10T00:35:36;11.85;;;9.25;;
33824;SDS011;20127;48.962;8.342;2023-06-10T00:38:38;14.65;;;9.90;;
33824;SDS011;20127;48.962;8.342;2023-06-10T00:41:42;11.45;;;10.45;;
33824;SDS011;20127;48.962;8.342;2023-06-10T00:44:43;10.60;;;9.30;;
33824;SDS011;20127;48.962;8.342;2023-06-10T00:47:45;10.50;;;9.55;;
33824;SDS011;20127;48.962;8.342;2023-06-10T00:50:47;10.60;;;9.60;;
33824;SDS011;20127;48.962;8.342;2023-06-10T00:53:49;13.20;;;9.95;;
33824;SDS011;20127;48.962;8.342;2023-06-10T00:56:54;12.70;;;9.75;;
33824;SDS011;20127;48.962;8.342;2023-06-10T00:59:57;11.20;;;9.55;;
33824;SDS011;20127;48.962;8.342;2023-06-10T01:02:59;10.95;;;9.85;;
33824;SDS011;20127;48.962;8.342;2023-06-10T01:06:03;10.40;;;9.48;;
33824;SDS011;20127;48.962;8.342;2023-06-10T01:09:12;10.18;;;9.38;;
33824;SDS011;20127;48.962;8.342;2023-06-10T01:12:29;9.80;;;8.70;;
33824;SDS011;20127;48.962;8.342;2023-06-10T01:15:35;12.23;;;8.93;;
33824;SDS011;20127;48.962;8.342;2023-06-10T01:18:37;11.23;;;9.80;;
33824;SDS011;20127;48.962;8.342;2023-06-10T01:21:40;10.55;;;9.65;;
33824;SDS011;20127;48.962;8.342;2023-06-10T01:24:42;9.68;;;8.75;;
33824;SDS011;20127;48.962;8.342;2023-06-10T01:27:45;11.38;;;9.55;;
33824;SDS011;20127;48.962;8.342;2023-06-10T01:30:50;8.77;;;7.95;;
33824;SDS011;20127;48.962;8.342;2023-06-10T01:33:57;9.52;;;8.57;;
33824;SDS011;20127;48.962;8.342;2023-06-10T01:37:00;9.68;;;8.77;;
33824;SDS011;20127;48.962;8.342;2023-06-10T01:40:05;11.48;;;9.07;;
33824;SDS011;20127;48.962;8.342;2023-06-10T01:43:08;8.75;;;7.95;;
33824;SDS011;20127;48.962;8.342;2023-06-10T01:46:09;9.60;;;8.68;;
33824;SDS011;20127;48.962;8.342;2023-06-10T01:49:11;10.25;;;7.88;;
33824;SDS011;20127;48.962;8.342;2023-06-10T01:52:14;9.82;;;8.52;;
33824;SDS011;20127;48.962;8.342;2023-06-10T01:55:16;9.32;;;8.52;;
33824;SDS011;20127;48.962;8.342;2023-06-10T01:58:18;10.52;;;8.85;;
33824;SDS011;20127;48.962;8.342;2023-06-10T02:01:20;8.98;;;7.88;;
33824;SDS011;20127;48.962;8.342;2023-06-10T02:04:21;10.43;;;7.93;;
33824;SDS011;20127;48.962;8.342;2023-06-10T02:07:24;10.25;;;9.05;;
33824;SDS011;20127;48.962;8.342;2023-06-10T02:10:26;8.55;;;7.85;;
33824;SDS011;20127;48.962;8.342;2023-06-10T02:13:28;8.88;;;7.82;;
33824;SDS011;20127;48.962;8.342;2023-06-10T02:16:29;10.25;;;9.18;;
33824;SDS011;20127;48.962;8.342;2023-06-10T02:19:31;9.05;;;8.18;;
33824;SDS011;20127;48.962;8.342;2023-06-10T02:22:37;9.15;;;8.25;;
33824;SDS011;20127;48.962;8.342;2023-06-10T02:25:39;8.43;;;7.63;;
33824;SDS011;20127;48.962;8.342;2023-06-10T02:28:42;9.45;;;8.55;;
33824;SDS011;20127;48.962;8.342;2023-06-10T02:31:43;9.07;;;8.18;;
33824;SDS011;20127;48.962;8.342;2023-06-10T02:34:45;9.52;;;7.65;;
33824;SDS011;20127;48.962;8.342;2023-06-10T02:37:50;11.60;;;8.68;;
33824;SDS011;20127;48.962;8.342;2023-06-10T02:40:51;9.23;;;8.20;;
33824;SDS011;20127;48.962;8.342;2023-06-10T02:43:53;7.85;;;7.15;;
33824;SDS011;20127;48.962;8.342;2023-06-10T02:46:55;8.50;;;7.65;;
33824;SDS011;20127;48.962;8.342;2023-06-10T02:49:56;10.43;;;8.48;;
33824;SDS011;20127;48.962;8.342;2023-06-10T02:53:00;9.40;;;8.55;;
33824;SDS011;20127;48.962;8.342;2023-06-10T02:56:02;9.30;;;8.15;;
33824;SDS011;20127;48.962;8.342;2023-06-10T02:59:03;9.45;;;8.55;;
33824;SDS011;20127;48.962;8.342;2023-06-10T03:02:07;9.75;;;8.75;;
33824;SDS011;20127;48.962;8.342;2023-06-10T03:05:08;9.98;;;8.75;;
33824;SDS011;20127;48.962;8.342;2023-06-10T03:08:11;9.32;;;8.48;;
33824;SDS011;20127;48.962;8.342;2023-06-10T03:11:13;10.57;;;9.07;;
33824;SDS011;20127;48.962;8.342;2023-06-10T03:14:15;9.82;;;8.90;;
33824;SDS011;20127;48.962;8.342;2023-06-10T03:17:17;8.48;;;7.78;;
33824;SDS011;20127;48.962;8.342;2023-06-10T03:20:18;10.38;;;9.43;;
33824;SDS011;20127;48.962;8.342;2023-06-10T03:23:22;12.10;;;8.85;;
33824;SDS011;20127;48.962;8.342;2023-06-10T03:26:25;10.32;;;9.32;;
33824;SDS011;20127;48.962;8.342;2023-06-10T03:29:27;9.50;;;8.70;;
33824;SDS011;20127;48.962;8.342;2023-06-10T03:32:29;9.45;;;8.65;;
33824;SDS011;20127;48.962;8.342;2023-06-10T03:35:30;10.73;;;9.13;;
33824;SDS011;20127;48.962;8.342;2023-06-10T03:38:34;12.07;;;8.88;;
33824;SDS011;20127;48.962;8.342;2023-06-10T03:41:35;10.15;;;9.15;;
33824;SDS011;20127;48.962;8.342;2023-06-10T03:44:37;10.48;;;8.60;;
33824;SDS011;20127;48.962;8.342;2023-06-10T03:47:38;11.93;;;9.45;;
33824;SDS011;20127;48.962;8.342;2023-06-10T03:50:41;10.55;;;9.35;;
33824;SDS011;20127;48.962;8.342;2023-06-10T03:53:44;11.70;;;10.50;;
33824;SDS011;20127;48.962;8.342;2023-06-10T03:56:46;10.48;;;9.07;;
33824;SDS011;20127;48.962;8.342;2023-06-10T03:59:48;11.32;;;9.63;;
33824;SDS011;20127;48.962;8.342;2023-06-10T04:02:49;11.43;;;8.82;;
33824;SDS011;20127;48.962;8.342;2023-06-10T04:05:51;11.45;;;8.93;;
33824;SDS011;20127;48.962;8.342;2023-06-10T04:08:54;9.60;;;8.80;;
33824;SDS011;20127;48.962;8.342;2023-06-10T04:11:57;9.75;;;8.85;;
33824;SDS011;20127;48.962;8.342;2023-06-10T04:14:58;9.38;;;8.38;;
33824;SDS011;20127;48.962;8.342;2023-06-10T04:18:00;11.02;;;9.15;;
33824;SDS011;20127;48.962;8.342;2023-06-10T04:21:02;9.80;;;8.85;;
33824;SDS011;20127;48.962;8.342;2023-06-10T04:24:05;10.32;;;8.90;;
33824;SDS011;20127;48.962;8.342;2023-06-10T04:27:07;13.63;;;8.77;;
33824;SDS011;20127;48.962;8.342;2023-06-10T04:30:09;9.68;;;8.57;;
33824;SDS011;20127;48.962;8.342;2023-06-10T04:33:12;10.25;;;9.18;;
33824;SDS011;20127;48.962;8.342;2023-06-10T04:36:13;9.15;;;8.45;;
33824;SDS011;20127;48.962;8.342;2023-06-10T04:39:17;9.13;;;8.32;;
33824;SDS011;20127;48.962;8.342;2023-06-10T04:42:18;9.80;;;8.98;;
33824;SDS011;20127;48.962;8.342;2023-06-10T04:45:20;8.95;;;8.15;;
33824;SDS011;20127;48.962;8.342;2023-06-10T04:48:22;8.55;;;7.47;;
33824;SDS011;20127;48.962;8.342;2023-06-10T04:51:25;8.60;;;7.57;;
33824;SDS011;20127;48.962;8.342;2023-06-10T04:54:28;9.43;;;7.57;;
33824;SDS011;20127;48.962;8.342;2023-06-10T04:57:30;8.48;;;7.75;;
33824;SDS011;20127;48.962;8.342;2023-06-10T05:00:31;8.48;;;7.68;;
33824;SDS011;20127;48.962;8.342;2023-06-10T05:03:33;19.08;;;17.30;;
33824;SDS011;20127;48.962;8.342;2023-06-10T05:06:35;13.05;;;11.77;;
33824;SDS011;20127;48.962;8.342;2023-06-10T05:09:38;8.90;;;8.10;;
33824;SDS011;20127;48.962;8.342;2023-06-10T05:12:40;8.32;;;7.45;;
33824;SDS011;20127;48.962;8.342;2023-06-10T05:15:42;11.98;;;10.38;;
33824;SDS011;20127;48.962;8.342;2023-06-10T05:18:44;10.48;;;7.65;;
33824;SDS011;20127;48.962;8.342;2023-06-10T05:21:46;8.40;;;7.70;;
33824;SDS011;20127;48.962;8.342;2023-06-10T05:24:49;9.10;;;7.60;;
33824;SDS011;20127;48.962;8.342;2023-06-10T05:27:52;6.45;;;5.85;;
33824;SDS011;20127;48.962;8.342;2023-06-10T05:30:54;7.32;;;6.45;;
33824;SDS011;20127;48.962;8.342;2023-06-10T05:33:55;6.43;;;5.75;;
33824;SDS011;20127;48.962;8.342;2023-06-10T05:36:57;6.30;;;5.80;;
33824;SDS011;20127;48.962;8.342;2023-06-10T05:40:00;9.73;;;6.97;;
33824;SDS011;20127;48.962;8.342;2023-06-10T05:43:02;7.05;;;5.93;;
33824;SDS011;20127;48.962;8.342;2023-06-10T05:46:04;6.30;;;5.68;;
33824;SDS011;20127;48.962;8.342;2023-06-10T05:49:05;5.75;;;4.78;;
33824;SDS011;20127;48.962;8.342;2023-06-10T05:52:07;8.82;;;5.80;;
33824;SDS011;20127;48.962;8.342;2023-06-10T05:55:10;5.50;;;5.03;;
33824;SDS011;20127;48.962;8.342;2023-06-10T05:58:13;6.32;;;5.75;;
33824;SDS011;20127;48.962;8.342;2023-06-10T06:01:15;8.13;;;5.75;;
33824;SDS011;20127;48.962;8.342;2023-06-10T06:04:16;8.23;;;5.07;;
33824;SDS011;20127;48.962;8.342;2023-06-10T06:07:18;5.57;;;5.05;;
33824;SDS011;20127;48.962;8.342;2023-06-10T06:10:22;4.38;;;4.00;;
33824;SDS011;20127;48.962;8.342;2023-06-10T06:13:23;5.47;;;5.05;;
33824;SDS011;20127;48.962;8.342;2023-06-10T06:16:25;5.95;;;5.35;;
33824;SDS011;20127;48.962;8.342;2023-06-10T06:19:27;5.45;;;4.95;;
33824;SDS011;20127;48.962;8.342;2023-06-10T06:22:28;6.00;;;5.43;;
33824;SDS011;20127;48.962;8.342;2023-06-10T06:25:32;5.13;;;4.72;;
33824;SDS011;20127;48.962;8.342;2023-06-10T06:28:33;4.47;;;4.07;;
33824;SDS011;20127;48.962;8.342;2023-06-10T06:31:35;5.60;;;4.93;;
33824;SDS011;20127;48.962;8.342;2023-06-10T06:34:37;6.00;;;4.60;;
33824;SDS011;20127;48.962;8.342;2023-06-10T06:37:38;5.10;;;4.70;;
33824;SDS011;20127;48.962;8.342;2023-06-10T06:40:42;6.65;;;5.13;;
33824;SDS011;20127;48.962;8.342;2023-06-10T06:43:43;4.80;;;4.40;;
33824;SDS011;20127;48.962;8.342;2023-06-10T06:46:45;4.60;;;4.22;;
33824;SDS011;20127;48.962;8.342;2023-06-10T06:49:47;5.68;;;4.78;;
33824;SDS011;20127;48.962;8.342;2023-06-10T06:52:48;4.53;;;4.13;;
33824;SDS011;20127;48.962;8.342;2023-06-10T06:55:53;4.70;;;4.35;;
33824;SDS011;20127;48.962;8.342;2023-06-10T06:58:55;4.75;;;4.38;;
33824;SDS011;20127;48.962;8.342;2023-06-10T07:01:57;5.07;;;4.57;;
33824;SDS011;20127;48.962;8.342;2023-06-10T07:04:58;5.95;;;5.32;;
33824;SDS011;20127;48.962;8.342;2023-06-10T07:08:00;5.60;;;4.65;;
33824;SDS011;20127;48.962;8.342;2023-06-10T07:11:03;4.32;;;3.97;;
33824;SDS011;20127;48.962;8.342;2023-06-10T07:14:06;6.30;;;5.75;;
33824;SDS011;20127;48.962;8.342;2023-06-10T07:17:08;6.30;;;5.70;;
33824;SDS011;20127;48.962;8.342;2023-06-10T07:20:10;6.00;;;5.32;;
33824;SDS011;20127;48.962;8.342;2023-06-10T07:23:12;5.07;;;4.68;;
33824;SDS011;20127;48.962;8.342;2023-06-10T07:26:15;6.25;;;5.65;;
33824;SDS011;20127;48.962;8.342;2023-06-10T07:29:17;5.65;;;5.15;;
33824;SDS011;20127;48.962;8.342;2023-06-10T07:32:19;5.43;;;4.93;;
33824;SDS011;20127;48.962;8.342;2023-06-10T07:35:22;5.13;;;4.65;;
33824;SDS011;20127;48.962;8.342;2023-06-10T07:38:24;6.60;;;5.82;;
33824;SDS011;20127;48.962;8.342;2023-06-10T07:41:27;5.72;;;5.22;;
33824;SDS011;20127;48.962;8.342;2023-06-10T07:44:28;5.55;;;5.07;;
33824;SDS011;20127;48.962;8.342;2023-06-10T07:47:30;5.90;;;5.38;;
33824;SDS011;20127;48.962;8.342;2023-06-10T07:50:33;5.78;;;5.20;;
33824;SDS011;20127;48.962;8.342;2023-06-10T07:53:35;5.53;;;4.85;;
33824;SDS011;20127;48.962;8.342;2023-06-10T07:56:38;6.15;;;4.90;;
33824;SDS011;20127;48.962;8.342;2023-06-10T07:59:40;5.93;;;5.43;;
33824;SDS011;20127;48.962;8.342;2023-06-10T08:02:44;5.70;;;5.25;;
33824;SDS011;20127;48.962;8.342;2023-06-10T08:05:45;6.70;;;5.88;;
33824;SDS011;20127;48.962;8.342;2023-06-10T08:08:48;5.63;;;5.13;;
33824;SDS011;20127;48.962;8.342;2023-06-10T08:11:51;5.53;;;5.03;;
33824;SDS011;20127;48.962;8.342;2023-06-10T08:14:52;7.20;;;5.60;;
33824;SDS011;20127;48.962;8.342;2023-06-10T08:17:55;5.32;;;4.85;;
33824;SDS011;20127;48.962;8.342;2023-06-10T08:20:57;6.95;;;6.35;;
33824;SDS011;20127;48.962;8.342;2023-06-10T08:23:59;6.75;;;4.47;;
33824;SDS011;20127;48.962;8.342;2023-06-10T08:27:02;6.30;;;4.72;;
33824;SDS011;20127;48.962;8.342;2023-06-10T08:30:06;4.97;;;4.28;;
33824;SDS011;20127;48.962;8.342;2023-06-10T08:33:10;5.63;;;4.80;;
33824;SDS011;20127;48.962;8.342;2023-06-10T08:36:12;4.18;;;3.88;;
33824;SDS011;20127;48.962;8.342;2023-06-10T08:39:14;6.15;;;4.45;;
33824;SDS011;20127;48.962;8.342;2023-06-10T08:42:19;5.80;;;5.28;;
33824;SDS011;20127;48.962;8.342;2023-06-10T08:45:25;12.48;;;4.75;;
33824;SDS011;20127;48.962;8.342;2023-06-10T08:48:32;6.32;;;4.05;;
33824;SDS011;20127;48.962;8.342;2023-06-10T08:51:36;4.60;;;4.20;;
33824;SDS011;20127;48.962;8.342;2023-06-10T08:54:40;5.40;;;4.13;;
33824;SDS011;20127;48.962;8.342;2023-06-10T08:57:46;4.93;;;4.43;;
33824;SDS011;20127;48.962;8.342;2023-06-10T09:00:48;4.57;;;4.18;;
33824;SDS011;20127;48.962;8.342;2023-06-10T09:03:51;7.40;;;4.57;;
33824;SDS011;20127;48.962;8.342;2023-06-10T09:06:54;4.75;;;4.35;;
33824;SDS011;20127;48.962;8.342;2023-06-10T09:09:57;5.07;;;4.22;;
33824;SDS011;20127;48.962;8.342;2023-06-10T09:13:01;8.18;;;4.45;;
33824;SDS011;20127;48.962;8.342;2023-06-10T09:16:03;4.20;;;3.90;;
33824;SDS011;20127;48.962;8.342;2023-06-10T09:19:05;5.65;;;3.70;;
33824;SDS011;20127;48.962;8.342;2023-06-10T09:22:08;6.97;;;4.78;;
33824;SDS011;20127;48.962;8.342;2023-06-10T09:25:10;4.15;;;3.75;;
33824;SDS011;20127;48.962;8.342;2023-06-10T09:28:15;4.20;;;3.80;;
33824;SDS011;20127;48.962;8.342;2023-06-10T09:31:16;6.80;;;4.35;;
33824;SDS011;20127;48.962;8.342;2023-06-10T09:34:24;4.85;;;4.50;;
33824;SDS011;20127;48.962;8.342;2023-06-10T09:37:26;6.07;;;4.00;;
33824;SDS011;20127;48.962;8.342;2023-06-10T09:40:28;6.30;;;4.35;;
33824;SDS011;20127;48.962;8.342;2023-06-10T09:43:41;4.45;;;3.88;;
33824;SDS011;20127;48.962;8.342;2023-06-10T09:46:45;4.50;;;4.10;;
33824;SDS011;20127;48.962;8.342;2023-06-10T09:49:48;6.22;;;4.53;;
33824;SDS011;20127;48.962;8.342;2023-06-10T09:52:50;5.15;;;4.68;;
33824;SDS011;20127;48.962;8.342;2023-06-10T09:55:52;5.10;;;4.60;;
33824;SDS011;20127;48.962;8.342;2023-06-10T09:58:56;5.53;;;5.03;;
33824;SDS011;20127;48.962;8.342;2023-06-10T10:01:57;5.03;;;4.60;;
33824;SDS011;20127;48.962;8.342;2023-06-10T10:05:02;6.13;;;4.65;;
33824;SDS011;20127;48.962;8.342;2023-06-10T10:08:04;5.53;;;5.13;;
33824;SDS011;20127;48.962;8.342;2023-06-10T10:11:06;5.72;;;5.13;;
33824;SDS011;20127;48.962;8.342;2023-06-10T10:14:10;5.75;;;5.00;;
33824;SDS011;20127;48.962;8.342;2023-06-10T10:17:14;5.20;;;4.80;;
33824;SDS011;20127;48.962;8.342;2023-06-10T10:20:17;5.47;;;4.80;;
33824;SDS011;20127;48.962;8.342;2023-06-10T10:23:24;5.88;;;5.28;;
33824;SDS011;20127;48.962;8.342;2023-06-10T10:26:31;5.57;;;5.07;;
33824;SDS011;20127;48.962;8.342;2023-06-10T10:29:37;5.07;;;4.60;;
33824;SDS011;20127;48.962;8.342;2023-06-10T10:32:42;5.00;;;4.60;;
33824;SDS011;20127;48.962;8.342;2023-06-10T10:35:49;5.07;;;4.13;;
33824;SDS011;20127;48.962;8.342;2023-06-10T10:38:51;6.43;;;5.60;;
33824;SDS011;20127;48.962;8.342;2023-06-10T10:41:54;6.10;;;5.68;;
33824;SDS011;20127;48.962;8.342;2023-06-10T10:44:58;6.00;;;5.40;;
33824;SDS011;20127;48.962;8.342;2023-06-10T10:48:04;5.70;;;5.20;;
33824;SDS011;20127;48.962;8.342;2023-06-10T10:51:11;5.43;;;4.93;;
33824;SDS011;20127;48.962;8.342;2023-06-10T10:54:16;5.57;;;5.07;;
33824;SDS011;20127;48.962;8.342;2023-06-10T10:57:18;5.38;;;4.88;;
33824;SDS011;20127;48.962;8.342;2023-06-10T11:00:25;7.35;;;5.10;;
33824;SDS011;20127;48.962;8.342;2023-06-10T11:03:29;5.10;;;4.70;;
33824;SDS011;20127;48.962;8.342;2023-06-10T11:06:31;4.97;;;4.55;;
33824;SDS011;20127;48.962;8.342;2023-06-10T11:09:33;4.93;;;4.53;;
33824;SDS011;20127;48.962;8.342;2023-06-10T11:12:50;5.85;;;5.03;;
33824;SDS011;20127;48.962;8.342;2023-06-10T11:15:57;4.55;;;4.18;;
33824;SDS011;20127;48.962;8.342;2023-06-10T11:18:59;5.10;;;4.70;;
33824;SDS011;20127;48.962;8.342;2023-06-10T11:22:01;7.55;;;4.47;;
33824;SDS011;20127;48.962;8.342;2023-06-10T11:25:04;4.85;;;4.35;;
33824;SDS011;20127;48.962;8.342;2023-06-10T11:28:17;5.68;;;4.60;;
33824;SDS011;20127;48.962;8.342;2023-06-10T11:31:21;4.95;;;4.30;;
33824;SDS011;20127;48.962;8.342;2023-06-10T11:34:24;6.03;;;4.40;;
33824;SDS011;20127;48.962;8.342;2023-06-10T11:37:27;4.10;;;3.80;;
33824;SDS011;20127;48.962;8.342;2023-06-10T11:40:29;4.72;;;4.43;;
33824;SDS011;20127;48.962;8.342;2023-06-10T11:43:31;5.45;;;4.15;;
33824;SDS011;20127;48.962;8.342;2023-06-10T11:46:34;5.13;;;4.72;;
33824;SDS011;20127;48.962;8.342;2023-06-10T11:49:36;4.47;;;4.10;;
33824;SDS011;20127;48.962;8.342;2023-06-10T11:52:38;5.03;;;4.53;;
33824;SDS011;20127;48.962;8.342;2023-06-10T11:55:41;5.07;;;4.65;;
33824;SDS011;20127;48.962;8.342;2023-06-10T11:58:44;5.40;;;4.90;;
33824;SDS011;20127;48.962;8.342;2023-06-10T12:01:47;4.28;;;3.97;;
33824;SDS011;20127;48.962;8.342;2023-06-10T12:04:49;5.15;;;4.75;;
33824;SDS011;20127;48.962;8.342;2023-06-10T12:11:11;5.20;;;4.80;;
33824;SDS011;20127;48.962;8.342;2023-06-10T12:14:13;5.45;;;4.78;;
33824;SDS011;20127;48.962;8.342;2023-06-10T12:17:16;5.35;;;3.47;;
33824;SDS011;20127;48.962;8.342;2023-06-10T12:20:24;5.68;;;4.88;;
33824;SDS011;20127;48.962;8.342;2023-06-10T12:23:27;4.55;;;4.15;;
33824;SDS011;20127;48.962;8.342;2023-06-10T12:26:35;5.78;;;5.28;;
33824;SDS011;20127;48.962;8.342;2023-06-10T12:29:39;6.65;;;4.53;;
33824;SDS011;20127;48.962;8.342;2023-06-10T12:32:43;4.72;;;4.32;;
33824;SDS011;20127;48.962;8.342;2023-06-10T12:35:49;8.35;;;4.53;;
33824;SDS011;20127;48.962;8.342;2023-06-10T12:38:52;6.32;;;5.15;;
33824;SDS011;20127;48.962;8.342;2023-06-10T12:42:03;4.53;;;4.13;;
33824;SDS011;20127;48.962;8.342;2023-06-10T12:45:06;5.03;;;4.60;;
33824;SDS011;20127;48.962;8.342;2023-06-10T12:48:12;6.00;;;4.32;;
33824;SDS011;20127;48.962;8.342;2023-06-10T12:51:18;4.38;;;3.97;;
33824;SDS011;20127;48.962;8.342;2023-06-10T12:54:20;4.43;;;4.13;;
33824;SDS011;20127;48.962;8.342;2023-06-10T12:57:23;4.15;;;3.85;;
33824;SDS011;20127;48.962;8.342;2023-06-10T13:00:24;4.50;;;4.10;;
33824;SDS011;20127;48.962;8.342;2023-06-10T13:03:30;4.70;;;4.15;;
33824;SDS011;20127;48.962;8.342;2023-06-10T13:06:33;5.15;;;4.72;;
33824;SDS011;20127;48.962;8.342;2023-06-10T13:09:38;7.75;;;4.43;;
33824;SDS011;20127;48.962;8.342;2023-06-10T13:12:40;7.18;;;4.25;;
33824;SDS011;20127;48.962;8.342;2023-06-10T13:15:42;4.60;;;4.20;;
33824;SDS011;20127;48.962;8.342;2023-06-10T13:18:45;4.40;;;4.10;;
33824;SDS011;20127;48.962;8.342;2023-06-10T13:21:47;4.82;;;4.43;;
33824;SDS011;20127;48.962;8.342;2023-06-10T13:24:48;4.55;;;4.20;;
33824;SDS011;20127;48.962;8.342;2023-06-10T13:27:50;4.88;;;4.35;;
33824;SDS011;20127;48.962;8.342;2023-06-10T13:30:52;4.85;;;4.38;;
33824;SDS011;20127;48.962;8.342;2023-06-10T13:33:55;5.53;;;4.03;;
33824;SDS011;20127;48.962;8.342;2023-06-10T13:36:57;4.55;;;4.15;;
33824;SDS011;20127;48.962;8.342;2023-06-10T13:39:59;3.90;;;3.60;;
33824;SDS011;20127;48.962;8.342;2023-06-10T13:43:01;4.75;;;4.05;;
33824;SDS011;20127;48.962;8.342;2023-06-10T13:46:03;5.95;;;3.75;;
33824;SDS011;20127;48.962;8.342;2023-06-10T13:49:06;5.20;;;4.10;;
33824;SDS011;20127;48.962;8.342;2023-06-10T13:52:08;4.57;;;4.15;;
33824;SDS011;20127;48.962;8.342;2023-06-10T13:55:10;4.68;;;4.28;;
33824;SDS011;20127;48.962;8.342;2023-06-10T13:58:12;4.40;;;4.00;;
33824;SDS011;20127;48.962;8.342;2023-06-10T14:01:13;4.20;;;3.80;;
33824;SDS011;20127;48.962;8.342;2023-06-10T14:04:16;4.05;;;3.65;;
33824;SDS011;20127;48.962;8.342;2023-06-10T14:07:18;4.65;;;3.92;;
33824;SDS011;20127;48.962;8.342;2023-06-10T14:10:20;3.97;;;3.60;;
33824;SDS011;20127;48.962;8.342;2023-06-10T14:13:22;4.72;;;4.32;;
33824;SDS011;20127;48.962;8.342;2023-06-10T14:16:24;5.63;;;4.22;;
33824;SDS011;20127;48.962;8.342;2023-06-10T14:19:27;4.63;;;4.30;;
33824;SDS011;20127;48.962;8.342;2023-06-10T14:22:29;6.50;;;4.18;;
33824;SDS011;20127;48.962;8.342;2023-06-10T14:25:30;4.30;;;3.78;;
33824;SDS011;20127;48.962;8.342;2023-06-10T14:28:32;4.60;;;4.20;;
33824;SDS011;20127;48.962;8.342;2023-06-10T14:31:34;7.75;;;4.30;;
33824;SDS011;20127;48.962;8.342;2023-06-10T14:34:36;5.05;;;4.55;;
33824;SDS011;20127;48.962;8.342;2023-06-10T14:37:39;7.57;;;3.97;;
33824;SDS011;20127;48.962;8.342;2023-06-10T14:40:41;5.47;;;4.60;;
33824;SDS011;20127;48.962;8.342;2023-06-10T14:43:42;4.75;;;4.35;;
33824;SDS011;20127;48.962;8.342;2023-06-10T14:46:44;4.45;;;4.05;;
33824;SDS011;20127;48.962;8.342;2023-06-10T14:49:47;5.80;;;3.70;;
33824;SDS011;20127;48.962;8.342;2023-06-10T14:52:49;4.40;;;4.00;;
33824;SDS011;20127;48.962;8.342;2023-06-10T14:55:50;5.65;;;4.28;;
33824;SDS011;20127;48.962;8.342;2023-06-10T14:58:52;4.88;;;3.95;;
33824;SDS011;20127;48.962;8.342;2023-06-10T15:01:54;4.78;;;4.38;;
33824;SDS011;20127;48.962;8.342;2023-06-10T15:04:57;7.60;;;5.00;;
33824;SDS011;20127;48.962;8.342;2023-06-10T15:07:58;18.30;;;4.53;;
33824;SDS011;20127;48.962;8.342;2023-06-10T15:11:00;5.13;;;3.83;;
33824;SDS011;20127;48.962;8.342;2023-06-10T15:14:02;4.18;;;3.78;;
33824;SDS011;20127;48.962;8.342;2023-06-10T15:17:04;3.92;;;3.63;;
33824;SDS011;20127;48.962;8.342;2023-06-10T15:20:08;7.30;;;4.68;;
33824;SDS011;20127;48.962;8.342;2023-06-10T15:23:10;3.78;;;3.47;;
33824;SDS011;20127;48.962;8.342;2023-06-10T15:26:11;3.88;;;3.40;;
33824;SDS011;20127;48.962;8.342;2023-06-10T15:29:13;4.05;;;3.65;;
33824;SDS011;20127;48.962;8.342;2023-06-10T15:32:15;5.03;;;4.18;;
33824;SDS011;20127;48.962;8.342;2023-06-10T15:35:18;4.18;;;3.50;;
33824;SDS011;20127;48.962;8.342;2023-06-10T15:38:20;4.80;;;3.47;;
33824;SDS011;20127;48.962;8.342;2023-06-10T15:41:21;3.92;;;3.63;;
33824;SDS011;20127;48.962;8.342;2023-06-10T15:44:23;3.72;;;3.42;;
33824;SDS011;20127;48.962;8.342;2023-06-10T15:47:25;5.03;;;4.60;;
33824;SDS011;20127;48.962;8.342;2023-06-10T15:50:28;4.05;;;3.47;;
33824;SDS011;20127;48.962;8.342;2023-06-10T15:53:30;7.90;;;3.55;;
33824;SDS011;20127;48.962;8.342;2023-06-10T15:56:31;5.68;;;4.00;;
33824;SDS011;20127;48.962;8.342;2023-06-10T15:59:33;5.30;;;3.50;;
33824;SDS011;20127;48.962;8.342;2023-06-10T16:02:35;4.30;;;3.45;;
33824;SDS011;20127;48.962;8.342;2023-06-10T16:05:38;4.25;;;3.65;;
33824;SDS011;20127;48.962;8.342;2023-06-10T16:08:39;4.72;;;3.80;;
33824;SDS011;20127;48.962;8.342;2023-06-10T16:14:51;5.13;;;3.72;;
33824;SDS011;20127;48.962;8.342;2023-06-10T16:17:53;4.22;;;3.85;;
33824;SDS011;20127;48.962;8.342;2023-06-10T16:20:56;4.35;;;3.95;;
33824;SDS011;20127;48.962;8.342;2023-06-10T16:23:58;3.45;;;3.25;;
33824;SDS011;20127;48.962;8.342;2023-06-10T16:27:00;4.07;;;3.30;;
33824;SDS011;20127;48.962;8.342;2023-06-10T16:30:02;3.22;;;3.03;;
33824;SDS011;20127;48.962;8.342;2023-06-10T16:33:04;3.97;;;3.58;;
33824;SDS011;20127;48.962;8.342;2023-06-10T16:36:07;3.92;;;3.28;;
33824;SDS011;20127;48.962;8.342;2023-06-10T16:39:09;4.00;;;3.70;;
33824;SDS011;20127;48.962;8.342;2023-06-10T16:42:11;5.07;;;3.85;;
33824;SDS011;20127;48.962;8.342;2023-06-10T16:45:12;4.28;;;3.88;;
33824;SDS011;20127;48.962;8.342;2023-06-10T16:48:14;4.43;;;4.13;;
33824;SDS011;20127;48.962;8.342;2023-06-10T16:51:17;5.70;;;3.47;;
33824;SDS011;20127;48.962;8.342;2023-06-10T16:54:19;3.90;;;3.60;;
33824;SDS011;20127;48.962;8.342;2023-06-10T16:57:20;3.83;;;3.53;;
33824;SDS011;20127;48.962;8.342;2023-06-10T17:00:22;3.75;;;3.45;;
33824;SDS011;20127;48.962;8.342;2023-06-10T17:03:24;4.78;;;4.13;;
33824;SDS011;20127;48.962;8.342;2023-06-10T17:06:27;3.60;;;3.33;;
33824;SDS011;20127;48.962;8.342;2023-06-10T17:09:29;4.85;;;3.35;;
33824;SDS011;20127;48.962;8.342;2023-06-10T17:12:30;4.47;;;3.63;;
33824;SDS011;20127;48.962;8.342;2023-06-10T17:15:32;5.72;;;4.00;;
33824;SDS011;20127;48.962;8.342;2023-06-10T17:18:35;5.45;;;3.97;;
33824;SDS011;20127;48.962;8.342;2023-06-10T17:21:38;4.22;;;3.83;;
33824;SDS011;20127;48.962;8.342;2023-06-10T17:24:40;7.32;;;3.85;;
33824;SDS011;20127;48.962;8.342;2023-06-10T17:27:42;5.22;;;4.50;;
33824;SDS011;20127;48.962;8.342;2023-06-10T17:30:44;4.20;;;3.90;;
33824;SDS011;20127;48.962;8.342;2023-06-10T17:33:47;7.40;;;4.80;;
33824;SDS011;20127;48.962;8.342;2023-06-10T17:36:50;4.15;;;3.85;;
33824;SDS011;20127;48.962;8.342;2023-06-10T17:39:52;4.55;;;4.05;;
33824;SDS011;20127;48.962;8.342;2023-06-10T17:42:53;6.60;;;4.18;;
33824;SDS011;20127;48.962;8.342;2023-06-10T17:45:55;4.07;;;3.78;;
33824;SDS011;20127;48.962;8.342;2023-06-10T17:48:57;4.18;;;3.60;;
33824;SDS011;20127;48.962;8.342;2023-06-10T17:52:00;9.00;;;7.05;;
33824;SDS011;20127;48.962;8.342;2023-06-10T17:55:02;4.15;;;3.85;;
33824;SDS011;20127;48.962;8.342;2023-06-10T17:58:04;4.20;;;3.80;;
33824;SDS011;20127;48.962;8.342;2023-06-10T18:01:06;4.13;;;3.72;;
33824;SDS011;20127;48.962;8.342;2023-06-10T18:04:08;4.70;;;3.90;;
33824;SDS011;20127;48.962;8.342;2023-06-10T18:07:11;5.10;;;3.75;;
33824;SDS011;20127;48.962;8.342;2023-06-10T18:10:13;4.90;;;4.50;;
33824;SDS011;20127;48.962;8.342;2023-06-10T18:13:15;5.07;;;4.18;;
33824;SDS011;20127;48.962;8.342;2023-06-10T18:16:16;3.70;;;3.40;;
33824;SDS011;20127;48.962;8.342;2023-06-10T18:19:18;4.88;;;3.85;;
33824;SDS011;20127;48.962;8.342;2023-06-10T18:22:22;3.38;;;3.17;;
33824;SDS011;20127;48.962;8.342;2023-06-10T18:25:24;4.00;;;3.58;;